Time;durP1;ratioP1;P1;durP2;ratioP2;P2;SDS_P1;SDS_P2;PMS_P1;PMS_P2;Temp;Humidity;BMP_temperature;BMP_pressure;BME280_temperature;BME280_humidity;BME280_pressure;Samples;Min_cycle;Max_cycle;Signal;HPM_P1;HPM_P2
2023/04/27 00:01:18;;;;;;;0.20;0.20;;;17.50;81.70;;;;;;5006594;28;20072;-90
2023/04/27 00:03:44;;;;;;;0.17;0.17;;;17.50;81.70;;;;;;5006067;28;20054;-91
2023/04/27 00:06:11;;;;;;;0.20;0.20;;;17.50;81.70;;;;;;5005777;28;20046;-91
2023/04/27 00:08:37;;;;;;;0.13;0.13;;;17.50;81.80;;;;;;5006530;28;20092;-90
2023/04/27 00:11:02;;;;;;;0.30;0.30;;;17.50;81.80;;;;;;5006431;28;20038;-90
2023/04/27 00:13:28;;;;;;;0.20;0.20;;;17.50;81.70;;;;;;5006666;28;20045;-90
2023/04/27 00:15:54;;;;;;;0.20;0.20;;;17.50;81.70;;;;;;5004294;28;20053;-90
2023/04/27 00:18:19;;;;;;;0.20;0.20;;;17.50;81.70;;;;;;5007458;28;20124;-90
2023/04/27 00:20:45;;;;;;;0.20;0.20;;;17.50;81.70;;;;;;5005572;28;20045;-91
2023/04/27 00:23:11;;;;;;;0.10;0.10;;;17.50;81.70;;;;;;5003448;28;20049;-90
2023/04/27 00:25:36;;;;;;;0.30;0.30;;;17.50;81.70;;;;;;5005195;28;20038;-90
2023/04/27 00:28:02;;;;;;;0.20;0.20;;;17.50;81.70;;;;;;5004722;28;21969;-90
2023/04/27 00:30:28;;;;;;;0.17;0.17;;;17.50;81.70;;;;;;5007157;28;20427;-90
2023/04/27 00:32:53;;;;;;;0.20;0.20;;;17.50;82.50;;;;;;5004529;28;20049;-91
2023/04/27 00:35:19;;;;;;;0.40;0.40;;;17.50;81.60;;;;;;5004710;28;20138;-90
2023/04/27 00:37:44;;;;;;;0.35;0.35;;;17.50;81.70;;;;;;5005131;28;20042;-90
2023/04/27 00:40:10;;;;;;;0.20;0.20;;;17.50;81.60;;;;;;5005890;28;20057;-90
2023/04/27 00:42:36;;;;;;;0.30;0.30;;;17.50;81.70;;;;;;5005699;28;20507;-90
2023/04/27 00:45:02;;;;;;;0.20;0.20;;;17.50;81.70;;;;;;5006114;28;20038;-91
2023/04/27 00:47:29;;;;;;;0.80;0.20;;;17.50;81.70;;;;;;5003919;28;20054;-90
2023/04/27 00:49:54;;;;;;;0.25;0.25;;;17.50;81.70;;;;;;4986917;28;20106;-91
2023/04/27 00:52:20;;;;;;;0.20;0.20;;;17.50;81.70;;;;;;5004416;28;20157;-90
2023/04/27 00:54:48;;;;;;;0.22;0.22;;;17.50;81.60;;;;;;5004042;28;20539;-91
2023/04/27 00:57:13;;;;;;;0.30;0.30;;;17.40;81.60;;;;;;4972735;28;20072;-90
2023/04/27 00:59:39;;;;;;;0.25;0.25;;;17.50;81.70;;;;;;5005368;28;20042;-91
2023/04/27 01:02:04;;;;;;;0.20;0.20;;;17.50;82.50;;;;;;4986271;28;20056;-90
2023/04/27 01:04:31;;;;;;;0.20;0.20;;;17.50;81.70;;;;;;5009329;28;20045;-91
2023/04/27 01:06:56;;;;;;;0.38;0.30;;;17.40;81.60;;;;;;5007664;28;20049;-90
2023/04/27 01:09:22;;;;;;;0.30;0.30;;;17.50;81.50;;;;;;5009616;28;20046;-90
2023/04/27 01:11:47;;;;;;;0.30;0.30;;;17.50;81.50;;;;;;5010950;28;20525;-91
2023/04/27 01:14:13;;;;;;;0.20;0.20;;;17.40;81.50;;;;;;5010137;28;20050;-90
2023/04/27 01:16:39;;;;;;;0.20;0.20;;;17.50;81.50;;;;;;5010471;28;20080;-90
2023/04/27 01:19:06;;;;;;;0.80;0.20;;;17.40;81.50;;;;;;5007326;28;20128;-91
2023/04/27 01:21:31;;;;;;;0.30;0.30;;;17.40;81.50;;;;;;4990785;28;20072;-90
2023/04/27 01:23:57;;;;;;;1.10;0.30;;;17.40;81.50;;;;;;5002429;28;20503;-90
2023/04/27 01:26:22;;;;;;;0.20;0.20;;;17.40;81.50;;;;;;4989368;28;20069;-90
2023/04/27 01:28:48;;;;;;;0.20;0.20;;;17.40;81.50;;;;;;4989151;28;20137;-90
2023/04/27 01:31:14;;;;;;;0.20;0.20;;;17.40;81.50;;;;;;4988171;28;20061;-90
2023/04/27 01:33:40;;;;;;;0.20;0.20;;;17.40;81.50;;;;;;4970561;28;20524;-90
2023/04/27 01:36:06;;;;;;;0.20;0.20;;;17.40;81.60;;;;;;4990339;28;20554;-91
2023/04/27 01:38:32;;;;;;;0.20;0.20;;;17.40;81.50;;;;;;4988016;28;20039;-90
2023/04/27 01:41:01;;;;;;;0.22;0.22;;;17.40;81.50;;;;;;4980968;28;20136;-90
2023/04/27 01:43:28;;;;;;;0.20;0.20;;;17.40;81.50;;;;;;4996552;28;20111;-90
2023/04/27 01:45:53;;;;;;;0.20;0.20;;;17.40;81.50;;;;;;4994030;28;20049;-90
2023/04/27 01:48:19;;;;;;;0.15;0.10;;;17.40;81.50;;;;;;4984262;28;20038;-91
2023/04/27 01:50:45;;;;;;;0.30;0.30;;;17.40;81.50;;;;;;4987220;28;20045;-90
2023/04/27 01:53:10;;;;;;;0.22;0.22;;;17.40;81.50;;;;;;4985314;28;20492;-90
2023/04/27 01:55:36;;;;;;;0.32;0.30;;;17.40;81.50;;;;;;4984512;28;20046;-91
2023/04/27 01:58:01;;;;;;;0.30;0.30;;;17.40;81.40;;;;;;4988020;28;20042;-90
2023/04/27 02:00:27;;;;;;;0.20;0.20;;;17.40;81.40;;;;;;4990222;28;20046;-90
2023/04/27 02:02:53;;;;;;;0.20;0.20;;;17.40;81.40;;;;;;4998367;28;20041;-91
2023/04/27 02:05:19;;;;;;;0.20;0.20;;;17.40;81.40;;;;;;4992606;28;20500;-90
2023/04/27 02:07:44;;;;;;;0.20;0.20;;;17.40;81.30;;;;;;4986629;28;20043;-90
2023/04/27 02:10:10;;;;;;;0.20;0.20;;;17.40;81.40;;;;;;4986028;28;20038;-90
2023/04/27 02:12:35;;;;;;;0.25;0.25;;;17.40;81.40;;;;;;4988316;28;20038;-90
2023/04/27 02:15:02;;;;;;;0.20;0.20;;;17.40;81.30;;;;;;4992187;28;20124;-89
2023/04/27 02:17:28;;;;;;;0.20;0.20;;;17.40;81.40;;;;;;4987539;28;20042;-89
2023/04/27 02:19:54;;;;;;;0.30;0.30;;;17.40;81.40;;;;;;4986624;28;20093;-90
2023/04/27 02:22:19;;;;;;;0.20;0.20;;;17.40;81.40;;;;;;4986750;28;20062;-91
2023/04/27 02:24:45;;;;;;;0.20;0.20;;;17.40;82.30;;;;;;4987106;28;20197;-91
2023/04/27 02:27:11;;;;;;;0.20;0.20;;;17.40;81.50;;;;;;4986496;28;20420;-90
2023/04/27 02:29:37;;;;;;;0.30;0.28;;;17.30;81.50;;;;;;4985607;28;20586;-90
2023/04/27 02:32:05;;;;;;;0.20;0.20;;;17.30;81.50;;;;;;4985022;28;20035;-90
2023/04/27 02:34:30;;;;;;;0.30;0.30;;;17.30;81.40;;;;;;4995600;28;20034;-90
2023/04/27 02:36:56;;;;;;;0.30;0.30;;;17.30;81.50;;;;;;5002566;28;20056;-90
2023/04/27 02:39:21;;;;;;;0.25;0.25;;;17.30;81.50;;;;;;5007570;28;20049;-90
2023/04/27 02:41:47;;;;;;;0.30;0.30;;;17.40;81.50;;;;;;5005205;28;20050;-90
2023/04/27 02:44:13;;;;;;;0.28;0.28;;;17.30;81.50;;;;;;5006554;28;20045;-90
2023/04/27 02:46:38;;;;;;;0.22;0.22;;;17.30;81.50;;;;;;5006113;28;20037;-90
2023/04/27 02:49:04;;;;;;;0.20;0.20;;;17.30;81.50;;;;;;5005029;28;20030;-90
2023/04/27 02:51:29;;;;;;;0.40;0.40;;;17.30;82.30;;;;;;5006757;28;20085;-90
2023/04/27 02:53:55;;;;;;;0.20;0.20;;;17.30;81.50;;;;;;5008194;28;20054;-90
2023/04/27 02:56:20;;;;;;;0.20;0.20;;;17.30;81.50;;;;;;5006112;28;20510;-90
2023/04/27 02:58:46;;;;;;;0.25;0.25;;;17.30;81.50;;;;;;5008239;28;20503;-90
2023/04/27 03:01:13;;;;;;;0.30;0.30;;;17.30;81.60;;;;;;4988063;28;20030;-90
2023/04/27 03:03:39;;;;;;;0.40;0.40;;;17.30;81.50;;;;;;5005714;28;20060;-91
2023/04/27 03:06:05;;;;;;;0.45;0.45;;;17.30;81.60;;;;;;5006660;28;20030;-91
2023/04/27 03:08:31;;;;;;;0.20;0.20;;;17.30;81.60;;;;;;5007477;28;20042;-90
2023/04/27 03:10:56;;;;;;;1.20;0.57;;;17.30;82.40;;;;;;5006074;28;20042;-90
2023/04/27 03:13:22;;;;;;;0.35;0.35;;;17.30;82.40;;;;;;5006961;28;20053;-90
2023/04/27 03:15:48;;;;;;;0.50;0.50;;;17.30;81.60;;;;;;5005173;28;20037;-90
2023/04/27 03:18:13;;;;;;;0.20;0.20;;;17.30;81.70;;;;;;5008051;28;20573;-90
2023/04/27 03:20:39;;;;;;;0.30;0.30;;;17.30;81.60;;;;;;5006343;28;20109;-91
2023/04/27 03:23:05;;;;;;;0.30;0.30;;;17.30;81.50;;;;;;5007433;28;20088;-90
2023/04/27 03:25:31;;;;;;;0.20;0.20;;;17.30;81.50;;;;;;5004801;28;20116;-91
2023/04/27 03:27:56;;;;;;;0.28;0.28;;;17.30;81.50;;;;;;5006802;28;20410;-90
2023/04/27 03:30:22;;;;;;;0.20;0.20;;;17.30;82.30;;;;;;5007879;28;20053;-90
2023/04/27 03:32:47;;;;;;;0.20;0.20;;;17.30;81.60;;;;;;5006224;28;20080;-90
2023/04/27 03:35:13;;;;;;;0.30;0.30;;;17.30;81.50;;;;;;5006652;28;20443;-91
2023/04/27 03:37:38;;;;;;;0.20;0.20;;;17.30;81.60;;;;;;5005771;28;20048;-90
2023/04/27 03:40:06;;;;;;;0.22;0.22;;;17.30;81.60;;;;;;5006355;28;20136;-91
2023/04/27 03:42:32;;;;;;;0.30;0.30;;;17.30;81.60;;;;;;5007058;28;20046;-90
2023/04/27 03:44:57;;;;;;;0.45;0.45;;;17.30;81.70;;;;;;5007444;28;20542;-90
2023/04/27 03:47:23;;;;;;;0.20;0.20;;;17.30;81.60;;;;;;5008181;28;20048;-91
2023/04/27 03:49:48;;;;;;;0.20;0.20;;;17.30;81.50;;;;;;5006170;28;20034;-91
2023/04/27 03:52:14;;;;;;;0.20;0.20;;;17.30;81.60;;;;;;4990106;28;20608;-90
2023/04/27 03:54:40;;;;;;;0.20;0.20;;;17.30;81.70;;;;;;5006126;28;21006;-90
2023/04/27 03:57:05;;;;;;;0.10;0.10;;;17.30;82.40;;;;;;5005042;28;20042;-90
2023/04/27 03:59:31;;;;;;;0.20;0.20;;;17.30;81.60;;;;;;5004428;28;20097;-91
2023/04/27 04:01:56;;;;;;;0.20;0.20;;;17.30;81.60;;;;;;5005473;28;20368;-91
2023/04/27 04:04:22;;;;;;;0.30;0.30;;;17.30;81.70;;;;;;5007444;28;20050;-90
2023/04/27 04:06:47;;;;;;;0.30;0.30;;;17.20;81.70;;;;;;5005404;28;20038;-90
2023/04/27 04:09:14;;;;;;;0.13;0.13;;;17.30;81.60;;;;;;5005918;28;20033;-90
2023/04/27 04:11:39;;;;;;;0.10;0.10;;;17.30;81.60;;;;;;5006464;28;20041;-90
2023/04/27 04:14:05;;;;;;;0.20;0.20;;;17.30;81.60;;;;;;5007023;28;20042;-89
2023/04/27 04:16:32;;;;;;;0.20;0.20;;;17.30;81.60;;;;;;5004718;28;20125;-90
2023/04/27 04:18:57;;;;;;;0.17;0.17;;;17.20;81.60;;;;;;5005618;28;20066;-90
2023/04/27 04:21:23;;;;;;;0.20;0.20;;;17.30;81.70;;;;;;5005545;28;20249;-90
2023/04/27 04:23:49;;;;;;;0.20;0.20;;;17.30;81.70;;;;;;5006740;28;20049;-91
2023/04/27 04:26:15;;;;;;;0.20;0.20;;;17.20;81.70;;;;;;5003844;28;20578;-91
2023/04/27 04:28:41;;;;;;;0.20;0.20;;;17.30;81.70;;;;;;4992011;28;20042;-91
2023/04/27 04:31:08;;;;;;;0.20;0.20;;;17.20;81.60;;;;;;4986838;28;20503;-90
2023/04/27 04:33:34;;;;;;;0.20;0.20;;;17.20;81.60;;;;;;4984943;28;20475;-91
2023/04/27 04:36:03;;;;;;;0.30;0.30;;;17.30;81.60;;;;;;4989247;28;20531;-91
2023/04/27 04:38:28;;;;;;;0.20;0.20;;;17.20;81.60;;;;;;4989426;28;20057;-90
2023/04/27 04:40:54;;;;;;;0.10;0.10;;;17.20;81.60;;;;;;4990395;28;20042;-91
2023/04/27 04:43:20;;;;;;;0.30;0.30;;;17.20;81.50;;;;;;4987819;28;20037;-91
2023/04/27 04:45:46;;;;;;;0.40;0.17;;;17.20;81.50;;;;;;4987044;28;20042;-90
2023/04/27 04:48:13;;;;;;;0.20;0.20;;;17.30;81.50;;;;;;4989763;28;20042;-90
2023/04/27 04:50:40;;;;;;;0.20;0.20;;;17.20;81.40;;;;;;5014831;28;20046;-91
2023/04/27 04:53:06;;;;;;;0.10;0.10;;;17.30;81.40;;;;;;4985205;28;20073;-89
2023/04/27 04:55:32;;;;;;;0.10;0.10;;;17.20;81.40;;;;;;5002244;28;20050;-91
2023/04/27 04:57:57;;;;;;;0.20;0.20;;;17.30;81.50;;;;;;4990384;28;20158;-91
2023/04/27 05:00:23;;;;;;;0.10;0.10;;;17.30;81.50;;;;;;4992805;28;20038;-91
2023/04/27 05:02:49;;;;;;;0.20;0.20;;;17.20;81.40;;;;;;5018682;28;20405;-90
2023/04/27 05:05:14;;;;;;;0.10;0.10;;;17.20;81.40;;;;;;4989576;28;20105;-77
2023/04/27 05:07:40;;;;;;;0.20;0.20;;;17.30;81.40;;;;;;4990549;28;20052;-77
2023/04/27 05:10:06;;;;;;;0.20;0.20;;;17.20;81.40;;;;;;4989561;28;20046;-77
2023/04/27 05:12:32;;;;;;;0.13;0.13;;;17.20;81.40;;;;;;4990442;28;20069;-77
2023/04/27 05:14:57;;;;;;;0.10;0.10;;;17.20;81.40;;;;;;4990165;28;20035;-78
2023/04/27 05:17:23;;;;;;;0.20;0.20;;;17.20;81.30;;;;;;4984824;28;20397;-77
2023/04/27 05:19:48;;;;;;;0.10;0.10;;;17.30;81.40;;;;;;4991376;28;20058;-77
2023/04/27 05:22:14;;;;;;;0.10;0.10;;;17.20;81.30;;;;;;4985346;28;20038;-77
2023/04/27 05:24:40;;;;;;;0.30;0.20;;;17.30;81.30;;;;;;4990045;28;20504;-76
2023/04/27 05:27:05;;;;;;;0.10;0.10;;;17.30;82.10;;;;;;4988260;28;20101;-77
2023/04/27 05:29:31;;;;;;;0.10;0.10;;;17.20;81.30;;;;;;4999452;28;20526;-77
2023/04/27 05:31:57;;;;;;;0.20;0.20;;;17.30;82.10;;;;;;4989295;28;20062;-77
2023/04/27 05:34:22;;;;;;;0.30;0.30;;;17.30;81.30;;;;;;4989181;28;20842;-78
2023/04/27 05:36:48;;;;;;;0.50;0.50;;;17.20;81.30;;;;;;4989526;28;20054;-78
2023/04/27 05:39:13;;;;;;;0.50;0.50;;;17.30;81.30;;;;;;4990516;28;20042;-77
2023/04/27 05:41:39;;;;;;;0.55;0.55;;;17.30;81.30;;;;;;4991301;28;20101;-77
2023/04/27 05:44:05;;;;;;;0.70;0.70;;;17.20;81.30;;;;;;4987985;28;20430;-77
2023/04/27 05:46:30;;;;;;;1.08;0.98;;;17.20;81.20;;;;;;4989304;28;20050;-77
2023/04/27 05:48:56;;;;;;;1.10;1.08;;;17.20;81.20;;;;;;4987858;28;20460;-77
2023/04/27 05:51:22;;;;;;;0.93;0.93;;;17.20;81.30;;;;;;4988928;28;20072;-77
2023/04/27 05:53:47;;;;;;;1.00;0.90;;;17.20;81.20;;;;;;4989986;28;20046;-77
2023/04/27 05:56:13;;;;;;;1.25;1.15;;;17.30;81.20;;;;;;4988436;28;20046;-77
2023/04/27 05:58:38;;;;;;;1.30;1.20;;;17.20;81.20;;;;;;4986715;28;20038;-77
2023/04/27 06:01:04;;;;;;;1.63;1.35;;;17.20;81.30;;;;;;4989557;28;20038;-77
2023/04/27 06:03:30;;;;;;;1.95;1.23;;;17.20;81.30;;;;;;5004662;28;20054;-77
2023/04/27 06:05:56;;;;;;;1.02;0.93;;;17.20;81.20;;;;;;5003667;28;20384;-77
2023/04/27 06:08:22;;;;;;;1.45;0.90;;;17.30;81.30;;;;;;5005683;28;20389;-77
2023/04/27 06:10:48;;;;;;;0.95;0.93;;;17.20;81.30;;;;;;5008809;28;20049;-77
2023/04/27 06:13:15;;;;;;;0.90;0.90;;;17.20;81.30;;;;;;4991029;28;20061;-77
2023/04/27 06:15:40;;;;;;;1.38;1.27;;;17.20;81.30;;;;;;5002767;28;20522;-77
2023/04/27 06:18:06;;;;;;;0.95;0.95;;;17.30;81.90;;;;;;4989689;28;20054;-77
2023/04/27 06:20:31;;;;;;;0.90;0.88;;;17.30;81.20;;;;;;4982351;28;20050;-77
2023/04/27 06:22:58;;;;;;;0.88;0.88;;;17.30;81.20;;;;;;4988208;28;20511;-77
2023/04/27 06:25:26;;;;;;;0.82;0.82;;;17.20;81.10;;;;;;4988403;28;20030;-77
2023/04/27 06:27:51;;;;;;;1.00;1.00;;;17.20;81.20;;;;;;4986351;28;20038;-77
2023/04/27 06:30:17;;;;;;;0.63;0.63;;;17.30;81.20;;;;;;4989790;28;20046;-77
2023/04/27 06:32:42;;;;;;;0.85;0.75;;;17.20;81.20;;;;;;4986187;28;20042;-77
2023/04/27 06:35:09;;;;;;;0.57;0.50;;;17.20;81.20;;;;;;4986958;28;20085;-77
2023/04/27 06:37:34;;;;;;;0.50;0.40;;;17.30;81.20;;;;;;4986751;28;20049;-78
2023/04/27 06:40:00;;;;;;;0.75;0.75;;;17.20;81.20;;;;;;4991073;28;20038;-77
2023/04/27 06:42:26;;;;;;;0.68;0.68;;;17.20;81.20;;;;;;4985115;28;20057;-77
2023/04/27 06:44:55;;;;;;;0.65;0.65;;;17.30;81.20;;;;;;4988176;28;20046;-77
2023/04/27 06:47:21;;;;;;;0.68;0.55;;;17.30;81.20;;;;;;4986247;28;20046;-77
2023/04/27 06:49:47;;;;;;;0.90;0.90;;;17.30;81.10;;;;;;4999825;28;20047;-78
2023/04/27 06:52:12;;;;;;;0.60;0.60;;;17.30;81.10;;;;;;4998164;28;20516;-77
2023/04/27 06:54:38;;;;;;;0.70;0.70;;;17.30;81.10;;;;;;4987782;28;20043;-77
2023/04/27 06:57:03;;;;;;;0.70;0.70;;;17.30;81.10;;;;;;4989237;28;20133;-77
2023/04/27 06:59:29;;;;;;;0.90;0.85;;;17.30;81.00;;;;;;4984091;28;20031;-77
2023/04/27 07:01:54;;;;;;;1.20;1.10;;;17.30;81.10;;;;;;4985069;28;20046;-77
2023/04/27 07:04:20;;;;;;;1.40;1.30;;;17.30;81.10;;;;;;4986991;28;20068;-77
2023/04/27 07:06:45;;;;;;;1.55;1.45;;;17.30;81.30;;;;;;4985394;28;20543;-77
2023/04/27 07:09:11;;;;;;;1.67;1.42;;;17.30;81.30;;;;;;4987516;28;20030;-77
2023/04/27 07:11:37;;;;;;;1.52;1.42;;;17.30;82.00;;;;;;4987686;28;20034;-77
2023/04/27 07:14:03;;;;;;;2.55;1.92;;;17.30;81.30;;;;;;4985592;28;20504;-78
2023/04/27 07:16:28;;;;;;;1.70;1.60;;;17.30;81.40;;;;;;4985821;28;20042;-77
2023/04/27 07:18:54;;;;;;;2.00;1.90;;;17.40;81.40;;;;;;4988135;28;20042;-77
2023/04/27 07:21:20;;;;;;;2.03;1.92;;;17.30;81.30;;;;;;4987043;28;20503;-77
2023/04/27 07:23:45;;;;;;;2.08;1.85;;;17.30;81.20;;;;;;4987123;28;20125;-77
2023/04/27 07:26:11;;;;;;;1.73;1.63;;;17.30;81.30;;;;;;4987557;28;20473;-77
2023/04/27 07:28:38;;;;;;;1.23;1.13;;;17.30;81.20;;;;;;4987359;28;20038;-77
2023/04/27 07:31:04;;;;;;;1.73;1.63;;;17.30;81.20;;;;;;4988393;28;20042;-77
2023/04/27 07:33:30;;;;;;;1.60;1.50;;;17.30;81.20;;;;;;4986629;28;20516;-77
2023/04/27 07:35:56;;;;;;;1.35;1.25;;;17.30;81.20;;;;;;4987853;28;20046;-78
2023/04/27 07:38:23;;;;;;;1.23;1.13;;;17.40;81.20;;;;;;4985468;28;20042;-77
2023/04/27 07:40:49;;;;;;;1.45;1.35;;;17.40;81.30;;;;;;4990868;28;20026;-77
2023/04/27 07:43:15;;;;;;;1.42;1.20;;;17.30;81.20;;;;;;4985331;28;20419;-77
2023/04/27 07:45:41;;;;;;;1.40;1.30;;;17.40;81.20;;;;;;4983412;28;20456;-77
2023/04/27 07:48:06;;;;;;;1.40;1.30;;;17.30;81.20;;;;;;4987409;28;20042;-77
2023/04/27 07:50:32;;;;;;;1.30;1.20;;;17.30;81.10;;;;;;4986253;28;20100;-77
2023/04/27 07:52:58;;;;;;;1.05;0.98;;;17.40;81.10;;;;;;4990106;28;20081;-77
2023/04/27 07:55:24;;;;;;;1.40;1.30;;;17.30;81.00;;;;;;4982713;28;20041;-77
2023/04/27 07:57:53;;;;;;;1.08;1.00;;;17.40;81.10;;;;;;4987255;28;20496;-77
2023/04/27 08:00:19;;;;;;;1.25;1.15;;;17.40;80.90;;;;;;4985624;28;20057;-77
2023/04/27 08:02:44;;;;;;;1.30;1.20;;;17.40;80.90;;;;;;4987427;28;20504;-77
2023/04/27 08:05:10;;;;;;;1.65;1.20;;;17.40;81.00;;;;;;4986486;28;20034;-77
2023/04/27 08:07:35;;;;;;;1.40;1.30;;;17.40;81.00;;;;;;4984912;28;20037;-77
2023/04/27 08:10:01;;;;;;;1.40;1.30;;;17.40;80.90;;;;;;4983380;28;20035;-77
2023/04/27 08:12:27;;;;;;;1.00;1.00;;;17.40;81.00;;;;;;4986207;28;20069;-77
2023/04/27 08:14:52;;;;;;;0.90;0.90;;;17.40;81.00;;;;;;4985884;28;20137;-77
2023/04/27 08:17:18;;;;;;;1.33;1.23;;;17.40;81.00;;;;;;4986173;28;20050;-77
2023/04/27 08:19:44;;;;;;;1.20;1.20;;;17.40;81.10;;;;;;4984239;28;20054;-77
2023/04/27 08:22:10;;;;;;;1.35;1.25;;;17.40;81.00;;;;;;4984254;28;20042;-76
2023/04/27 08:24:36;;;;;;;1.05;0.95;;;17.40;80.90;;;;;;4977151;28;20037;-77
2023/04/27 08:27:04;;;;;;;1.13;1.13;;;17.40;81.00;;;;;;4986142;28;20047;-77
2023/04/27 08:29:30;;;;;;;1.45;1.35;;;17.40;81.10;;;;;;4985277;28;20049;-78
2023/04/27 08:31:57;;;;;;;1.33;1.23;;;17.40;81.00;;;;;;4987094;28;20054;-77
2023/04/27 08:34:23;;;;;;;1.20;1.10;;;17.40;81.10;;;;;;4985912;28;20072;-77
2023/04/27 08:36:49;;;;;;;1.20;1.00;;;17.40;81.30;;;;;;4986635;28;20500;-77
2023/04/27 08:39:14;;;;;;;1.33;1.23;;;17.40;81.00;;;;;;4985265;28;20042;-77
2023/04/27 08:41:41;;;;;;;1.15;1.08;;;17.40;81.30;;;;;;4985738;28;20058;-77
2023/04/27 08:44:07;;;;;;;1.27;1.17;;;17.40;81.30;;;;;;4986239;28;20508;-77
2023/04/27 08:46:35;;;;;;;1.30;1.20;;;17.40;81.10;;;;;;4985686;28;20073;-77
2023/04/27 08:49:00;;;;;;;1.13;1.05;;;17.40;81.00;;;;;;4997589;28;20058;-77
2023/04/27 08:51:27;;;;;;;1.27;1.17;;;17.40;81.10;;;;;;4976860;28;20045;-78
2023/04/27 08:53:54;;;;;;;1.20;1.02;;;17.40;81.00;;;;;;4963681;28;20331;-77
2023/04/27 08:56:23;;;;;;;1.45;1.33;;;17.40;81.20;;;;;;4984357;28;20046;-77
2023/04/27 08:58:49;;;;;;;1.25;1.15;;;17.40;81.00;;;;;;4982109;28;20042;-77
2023/04/27 09:01:15;;;;;;;1.30;1.20;;;17.40;81.10;;;;;;4983259;28;20085;-77
2023/04/27 09:03:41;;;;;;;0.98;0.98;;;17.40;81.10;;;;;;4977586;28;20081;-77
2023/04/27 09:06:07;;;;;;;1.20;1.10;;;17.40;81.10;;;;;;4984776;28;20042;-77
2023/04/27 09:08:45;;;;;;;1.00;1.00;;;17.40;81.20;;;;;;4986295;28;20039;-77
2023/04/27 09:11:11;;;;;;;1.50;1.40;;;17.40;81.00;;;;;;4986111;28;20027;-77
2023/04/27 09:13:41;;;;;;;1.85;1.20;;;17.40;81.00;;;;;;4981512;28;20050;-77
2023/04/27 09:16:07;;;;;;;0.98;0.88;;;17.40;81.00;;;;;;4988293;28;20053;-77
2023/04/27 09:18:35;;;;;;;1.17;1.10;;;17.40;80.90;;;;;;4982300;28;20046;-77
2023/04/27 09:21:03;;;;;;;1.38;1.23;;;17.40;81.00;;;;;;4999078;28;20169;-77
2023/04/27 09:23:28;;;;;;;1.15;1.00;;;17.40;80.80;;;;;;5014958;28;20117;-78
2023/04/27 09:25:55;;;;;;;1.10;1.00;;;17.50;80.90;;;;;;4987665;28;20070;-77
2023/04/27 09:28:21;;;;;;;1.17;1.13;;;17.40;80.90;;;;;;4988711;28;20038;-77
2023/04/27 09:30:54;;;;;;;1.02;1.02;;;17.40;81.00;;;;;;5001654;28;20047;-77
2023/04/27 09:33:28;;;;;;;0.90;0.90;;;17.40;81.00;;;;;;4998847;28;20165;-77
2023/04/27 09:35:54;;;;;;;1.55;1.45;;;17.40;80.90;;;;;;5005765;28;20377;-77
2023/04/27 09:38:20;;;;;;;0.90;0.90;;;17.40;81.00;;;;;;5008729;28;20576;-77
2023/04/27 09:40:46;;;;;;;1.33;1.23;;;17.40;81.10;;;;;;5007965;28;20196;-77
2023/04/27 09:43:12;;;;;;;1.10;1.00;;;17.50;80.90;;;;;;5008117;28;20092;-77
2023/04/27 09:45:38;;;;;;;1.70;1.30;;;17.50;80.90;;;;;;4988332;28;20133;-77
2023/04/27 09:48:04;;;;;;;0.80;0.80;;;17.50;80.90;;;;;;5007886;28;20046;-77
2023/04/27 09:50:30;;;;;;;0.90;0.90;;;17.50;81.00;;;;;;5005741;28;20056;-77
2023/04/27 09:52:56;;;;;;;0.98;0.98;;;17.50;80.80;;;;;;4998637;28;20038;-77
2023/04/27 09:55:34;;;;;;;0.90;0.90;;;17.50;80.90;;;;;;5006847;28;20057;-77
2023/04/27 09:58:38;;;;;;;1.05;1.05;;;17.50;81.00;;;;;;4984839;28;20539;-78
2023/04/27 10:01:03;;;;;;;1.20;1.20;;;17.50;80.90;;;;;;5008118;28;20050;-77
2023/04/27 10:03:34;;;;;;;0.70;0.70;;;17.50;80.90;;;;;;5007470;28;20503;-77
2023/04/27 10:06:09;;;;;;;0.80;0.80;;;17.50;81.00;;;;;;5007359;28;20054;-77
2023/04/27 10:08:35;;;;;;;1.13;1.08;;;17.50;81.10;;;;;;5006186;28;20447;-77
2023/04/27 10:11:00;;;;;;;1.38;1.27;;;17.50;81.00;;;;;;4989696;28;20095;-77
2023/04/27 10:13:26;;;;;;;1.25;1.25;;;17.50;80.90;;;;;;5005568;28;20042;-77
2023/04/27 10:15:52;;;;;;;0.98;0.98;;;17.50;81.00;;;;;;5006561;28;20144;-77
2023/04/27 10:18:25;;;;;;;1.08;1.08;;;17.50;81.00;;;;;;5008590;28;20038;-77
2023/04/27 10:20:51;;;;;;;0.80;0.80;;;17.50;81.00;;;;;;4991674;28;20404;-77
2023/04/27 10:23:26;;;;;;;1.30;0.95;;;17.50;80.90;;;;;;4986282;28;20297;-77
2023/04/27 10:25:52;;;;;;;1.00;1.00;;;17.50;80.90;;;;;;4985628;28;20042;-77
2023/04/27 10:28:20;;;;;;;1.00;1.00;;;17.50;80.90;;;;;;4985156;28;20810;-77
2023/04/27 10:30:47;;;;;;;0.85;0.85;;;17.40;81.10;;;;;;4984492;28;20058;-77
2023/04/27 10:33:15;;;;;;;0.90;0.90;;;17.50;81.10;;;;;;4986756;28;20061;-77
2023/04/27 10:35:43;;;;;;;0.70;0.70;;;17.50;81.00;;;;;;4983548;28;20060;-77
2023/04/27 10:38:16;;;;;;;0.82;0.82;;;17.50;81.10;;;;;;4984703;28;20512;-77
2023/04/27 10:40:53;;;;;;;0.70;0.70;;;17.50;81.00;;;;;;4988850;28;20404;-77
2023/04/27 10:43:23;;;;;;;0.90;0.90;;;17.50;81.00;;;;;;5006056;28;20034;-77
2023/04/27 10:45:49;;;;;;;1.02;1.02;;;17.50;80.90;;;;;;4984641;28;20396;-77
2023/04/27 10:48:14;;;;;;;0.80;0.80;;;17.50;80.90;;;;;;4984358;28;20530;-77
2023/04/27 10:50:41;;;;;;;0.65;0.65;;;17.50;80.90;;;;;;5005601;28;20030;-77
2023/04/27 10:53:07;;;;;;;0.90;0.90;;;17.50;80.90;;;;;;4994117;28;20424;-76
2023/04/27 10:55:33;;;;;;;0.70;0.70;;;17.50;80.90;;;;;;4985475;28;20100;-77
2023/04/27 10:58:00;;;;;;;0.80;0.80;;;17.50;80.90;;;;;;4986052;28;20046;-77
2023/04/27 11:00:33;;;;;;;0.70;0.70;;;17.50;81.00;;;;;;4987809;28;20049;-77
2023/04/27 11:03:16;;;;;;;0.73;0.73;;;17.60;80.80;;;;;;4986317;28;20099;-77
2023/04/27 11:05:43;;;;;;;0.68;0.68;;;17.60;80.80;;;;;;4987256;28;20069;-77
2023/04/27 11:08:13;;;;;;;0.93;0.93;;;17.50;80.90;;;;;;4987687;28;20042;-77
2023/04/27 11:10:48;;;;;;;0.98;0.98;;;17.60;80.90;;;;;;4985976;28;20041;-77
2023/04/27 11:13:18;;;;;;;0.88;0.88;;;17.50;80.80;;;;;;4986086;28;20046;-77
2023/04/27 11:15:54;;;;;;;0.85;0.85;;;17.60;81.10;;;;;;4985732;28;20092;-77
2023/04/27 11:18:24;;;;;;;0.70;0.70;;;17.60;81.10;;;;;;4987012;28;20076;-77
2023/04/27 11:20:51;;;;;;;0.90;0.70;;;17.60;80.90;;;;;;4985423;28;20088;-77
2023/04/27 11:23:24;;;;;;;0.80;0.80;;;17.60;80.90;;;;;;4984273;28;20516;-77
2023/04/27 11:25:50;;;;;;;1.00;0.93;;;17.60;81.10;;;;;;4985170;28;20112;-77
2023/04/27 11:28:22;;;;;;;0.90;0.90;;;17.50;80.90;;;;;;4984022;28;20054;-77
2023/04/27 11:30:55;;;;;;;0.88;0.88;;;17.60;81.00;;;;;;4985184;28;20520;-77
2023/04/27 11:33:21;;;;;;;1.10;1.10;;;17.50;80.90;;;;;;4985989;28;20046;-77
2023/04/27 11:35:47;;;;;;;0.90;0.90;;;17.60;80.90;;;;;;4985931;28;20053;-78
2023/04/27 11:38:17;;;;;;;0.70;0.70;;;17.60;81.00;;;;;;5018663;28;20419;-77
2023/04/27 11:40:43;;;;;;;0.85;0.85;;;17.60;81.00;;;;;;4983832;28;20042;-77
2023/04/27 11:43:14;;;;;;;0.77;0.77;;;17.60;81.10;;;;;;4985726;28;20069;-77
2023/04/27 11:45:46;;;;;;;0.77;0.70;;;17.60;81.10;;;;;;4984069;28;20030;-77
2023/04/27 11:48:14;;;;;;;0.80;0.80;;;17.60;81.20;;;;;;4984367;28;20026;-77
2023/04/27 11:50:40;;;;;;;0.70;0.70;;;17.50;81.10;;;;;;4984833;28;20035;-77
2023/04/27 11:53:06;;;;;;;0.93;0.93;;;17.50;81.10;;;;;;4986507;28;20054;-77
2023/04/27 11:55:36;;;;;;;0.80;0.80;;;17.50;81.00;;;;;;4985828;28;20037;-77
2023/04/27 11:58:01;;;;;;;0.77;0.77;;;17.50;81.10;;;;;;4985122;28;20043;-77
2023/04/27 12:00:27;;;;;;;0.60;0.60;;;17.60;81.90;;;;;;4986861;28;20042;-77
2023/04/27 12:02:53;;;;;;;0.80;0.80;;;17.50;81.10;;;;;;4985141;28;20463;-78
2023/04/27 12:05:19;;;;;;;0.70;0.70;;;17.50;81.10;;;;;;4980210;28;20042;-78
2023/04/27 12:07:44;;;;;;;0.70;0.70;;;17.50;81.10;;;;;;4984506;28;20042;-77
2023/04/27 12:10:10;;;;;;;0.60;0.60;;;17.60;81.20;;;;;;4998785;28;20509;-77
2023/04/27 12:12:36;;;;;;;0.70;0.70;;;17.60;81.20;;;;;;5003371;28;20073;-77
2023/04/27 12:15:02;;;;;;;0.82;0.82;;;17.50;81.20;;;;;;4984619;28;20046;-78
2023/04/27 12:17:27;;;;;;;0.80;0.80;;;17.60;81.30;;;;;;4995108;28;20048;-77
2023/04/27 12:19:53;;;;;;;0.70;0.70;;;17.50;81.30;;;;;;4990045;28;20133;-78
2023/04/27 12:22:19;;;;;;;0.60;0.60;;;17.50;81.20;;;;;;4989227;28;20439;-77
2023/04/27 12:24:45;;;;;;;0.65;0.65;;;17.50;81.20;;;;;;4986020;28;20060;-77
2023/04/27 12:27:11;;;;;;;0.70;0.70;;;17.50;82.00;;;;;;4988784;28;20114;-77
2023/04/27 12:29:36;;;;;;;0.85;0.85;;;17.50;81.30;;;;;;4988087;28;20042;-77
2023/04/27 12:32:02;;;;;;;0.75;0.75;;;17.50;82.00;;;;;;4987882;28;20109;-78
2023/04/27 12:34:28;;;;;;;0.80;0.80;;;17.50;81.20;;;;;;4982279;28;20061;-76
2023/04/27 12:36:53;;;;;;;0.80;0.80;;;17.50;81.20;;;;;;4984331;28;20050;-77
2023/04/27 12:39:20;;;;;;;0.60;0.60;;;17.50;81.20;;;;;;4985626;28;20078;-77
2023/04/27 12:41:46;;;;;;;0.60;0.60;;;17.60;81.20;;;;;;4985000;28;20073;-77
2023/04/27 12:44:12;;;;;;;0.57;0.57;;;17.60;81.20;;;;;;4986256;28;20499;-77